Amberley, Queensland

7:48 PM AEST on September 30, 2014 (GMT +1000)
Amberley Military | Change Station
CLOSE
Current Station
Airport
Location: Amberley Military,
Elevation: 79 ft
Nearby Weather Stations

Elev 79 ft 27.63 °S, 152.71 °E | Updated 18 minutes ago

Clear
Clear
70 °F
Feels Like 70 °F
N
9
Wind Variable Wind from East

Today
High -- | Low -- °F
--% Chance of Precip.
Yesterday
High -- | Low -- °F
Precip. -- in
5:30 AM 5:48 PM
Waxing Crescent, 35% visible
Pressure 30.04 in
Visibility -9999.0 miles
Clouds
Dew Point 57 °F
Humidity 64%
Rainfall 0.00 in
Snow Depth Not available.
UV Not available.
Pollen Not available.
Air Quality Not available.
Flu Activity Not available.
METAR YAMB 300930Z 08008KT CAVOK 21/14 Q1017

More Conditions Fewer Conditions

Pressure 30.04 in
Visibility -9999.0 miles
Clouds
Dew Point 57 °F
Humidity 64%
Rainfall 0.00 in
Snow Depth Not available.
UV Not available.
Pollen Not available.
Air Quality Not available.
Flu Activity Not available.
METAR YAMB 300930Z 08008KT CAVOK 21/14 Q1017

More Conditions Fewer Conditions

10-Day Weather Forecast

Almanac

Astronomy

Sep. 30, 2014 Rise Set
Actual Time 5:30 AM AEST 5:48 PM AEST
Civil Twilight 5:06 AM AEST 6:12 PM AEST
Nautical Twilight 4:39 AM AEST 6:39 PM AEST
Astronomical Twilight 4:11 AM AEST 7:07 PM AEST
Moon 9:26 AM AEST 11:15 PM AEST
Length of Visible Light 13h 05m
Length of Day
12h 18m
Tomorrow will be 1m 38s longer.
Waxing Crescent, 35% of the Moon is Illuminated
Today
Waxing Crescent
Oct 1
First Quarter
Oct 8
Full
Oct 15
Last Quarter
Oct 23
New

Yesterday's Extremes

Country Highs Country Lows

Community

WunderPhotos

Upload Photos

1,757,606 photos uploaded!

Nearby

Snow Depth

Not available.

Earthquake Activity

City Distance Mag. Time & Date
No recent earthquake activity has been reported nearby.
Minimum magnitude displayed is 2.5.

Coastal Water Temperatures

Place Temperature
No Stations Reporting

Nearby Weather Stations